sensor_id;sensor_type;location;lat;lon;timestamp;pressure;altitude;pressure_sealevel;temperature;humidity
9077;BME280;4574;51.072;17.174;2022-11-09T00:01:27;100045.16;;;11.16;100.00
9077;BME280;4574;51.072;17.174;2022-11-09T00:03:58;100040.16;;;11.13;100.00
9077;BME280;4574;51.072;17.174;2022-11-09T00:06:27;100046.88;;;11.08;100.00
9077;BME280;4574;51.072;17.174;2022-11-09T00:08:56;100046.06;;;11.07;100.00
9077;BME280;4574;51.072;17.174;2022-11-09T00:11:32;100038.31;;;11.14;100.00
9077;BME280;4574;51.072;17.174;2022-11-09T00:14:01;100031.16;;;11.06;100.00
9077;BME280;4574;51.072;17.174;2022-11-09T00:16:29;100041.22;;;11.03;100.00
9077;BME280;4574;51.072;17.174;2022-11-09T00:18:59;100025.47;;;11.01;100.00
9077;BME280;4574;51.072;17.174;2022-11-09T00:21:28;100024.19;;;11.05;100.00
9077;BME280;4574;51.072;17.174;2022-11-09T00:23:56;100017.69;;;11.00;100.00
9077;BME280;4574;51.072;17.174;2022-11-09T00:26:25;100014.06;;;11.01;100.00
9077;BME280;4574;51.072;17.174;2022-11-09T00:28:53;100023.34;;;11.05;100.00
9077;BME280;4574;51.072;17.174;2022-11-09T00:31:23;100021.81;;;11.02;100.00
9077;BME280;4574;51.072;17.174;2022-11-09T00:33:54;100022.50;;;11.04;100.00
9077;BME280;4574;51.072;17.174;2022-11-09T00:36:26;100035.91;;;11.03;100.00
9077;BME280;4574;51.072;17.174;2022-11-09T00:38:56;100036.72;;;11.03;100.00
9077;BME280;4574;51.072;17.174;2022-11-09T00:41:25;100036.06;;;11.01;100.00
9077;BME280;4574;51.072;17.174;2022-11-09T00:43:54;100028.41;;;10.98;100.00
9077;BME280;4574;51.072;17.174;2022-11-09T00:46:23;100026.63;;;10.99;100.00
9077;BME280;4574;51.072;17.174;2022-11-09T00:48:53;100028.91;;;10.94;100.00
9077;BME280;4574;51.072;17.174;2022-11-09T00:51:21;100026.50;;;10.83;100.00
9077;BME280;4574;51.072;17.174;2022-11-09T00:53:52;100013.50;;;10.72;100.00
9077;BME280;4574;51.072;17.174;2022-11-09T00:56:21;100012.13;;;10.68;100.00
9077;BME280;4574;51.072;17.174;2022-11-09T00:58:52;100018.72;;;10.64;100.00
9077;BME280;4574;51.072;17.174;2022-11-09T01:01:21;100025.81;;;10.63;100.00
9077;BME280;4574;51.072;17.174;2022-11-09T01:03:50;100028.47;;;10.63;100.00
9077;BME280;4574;51.072;17.174;2022-11-09T01:06:23;100028.31;;;10.65;100.00
9077;BME280;4574;51.072;17.174;2022-11-09T01:08:53;100023.53;;;10.68;100.00
9077;BME280;4574;51.072;17.174;2022-11-09T01:11:22;100025.00;;;10.63;100.00
9077;BME280;4574;51.072;17.174;2022-11-09T01:13:51;100023.94;;;10.56;100.00
9077;BME280;4574;51.072;17.174;2022-11-09T01:16:21;100017.28;;;10.52;100.00
9077;BME280;4574;51.072;17.174;2022-11-09T01:18:52;100014.56;;;10.44;100.00
9077;BME280;4574;51.072;17.174;2022-11-09T01:21:21;100015.59;;;10.34;100.00
9077;BME280;4574;51.072;17.174;2022-11-09T01:23:50;100014.41;;;10.28;100.00
9077;BME280;4574;51.072;17.174;2022-11-09T01:26:20;100008.72;;;10.23;100.00
9077;BME280;4574;51.072;17.174;2022-11-09T01:28:48;100007.50;;;10.18;100.00
9077;BME280;4574;51.072;17.174;2022-11-09T01:31:18;100012.22;;;10.14;100.00
9077;BME280;4574;51.072;17.174;2022-11-09T01:33:47;100018.50;;;10.13;100.00
9077;BME280;4574;51.072;17.174;2022-11-09T01:36:18;100022.81;;;10.14;100.00
9077;BME280;4574;51.072;17.174;2022-11-09T01:38:47;100009.28;;;9.90;100.00
9077;BME280;4574;51.072;17.174;2022-11-09T01:41:19;100005.75;;;9.99;100.00
9077;BME280;4574;51.072;17.174;2022-11-09T01:44:08;100000.53;;;9.90;100.00
9077;BME280;4574;51.072;17.174;2022-11-09T01:46:41;100003.41;;;9.69;100.00
9077;BME280;4574;51.072;17.174;2022-11-09T01:49:13;99994.31;;;9.54;100.00
9077;BME280;4574;51.072;17.174;2022-11-09T01:51:47;99999.25;;;9.30;100.00
9077;BME280;4574;51.072;17.174;2022-11-09T01:54:21;99996.50;;;9.23;100.00
9077;BME280;4574;51.072;17.174;2022-11-09T01:56:52;99990.06;;;9.44;100.00
9077;BME280;4574;51.072;17.174;2022-11-09T01:59:26;99990.63;;;9.38;100.00
9077;BME280;4574;51.072;17.174;2022-11-09T02:01:56;99985.06;;;9.41;100.00
9077;BME280;4574;51.072;17.174;2022-11-09T02:04:28;99984.13;;;9.59;100.00
9077;BME280;4574;51.072;17.174;2022-11-09T02:06:58;99986.09;;;9.57;100.00
9077;BME280;4574;51.072;17.174;2022-11-09T02:09:30;99986.94;;;9.58;100.00
9077;BME280;4574;51.072;17.174;2022-11-09T02:12:02;99980.69;;;9.49;100.00
9077;BME280;4574;51.072;17.174;2022-11-09T02:14:34;99981.44;;;9.42;100.00
9077;BME280;4574;51.072;17.174;2022-11-09T02:17:03;99985.59;;;9.44;100.00
9077;BME280;4574;51.072;17.174;2022-11-09T02:19:32;99979.44;;;9.53;100.00
9077;BME280;4574;51.072;17.174;2022-11-09T02:22:02;99981.09;;;9.54;100.00
9077;BME280;4574;51.072;17.174;2022-11-09T02:24:31;99982.63;;;9.21;100.00
9077;BME280;4574;51.072;17.174;2022-11-09T02:27:01;99988.47;;;9.15;100.00
9077;BME280;4574;51.072;17.174;2022-11-09T02:29:33;99990.09;;;9.25;100.00
9077;BME280;4574;51.072;17.174;2022-11-09T02:32:06;99968.16;;;9.25;100.00
9077;BME280;4574;51.072;17.174;2022-11-09T02:34:37;99989.78;;;9.37;100.00
9077;BME280;4574;51.072;17.174;2022-11-09T02:37:07;99992.44;;;9.28;100.00
9077;BME280;4574;51.072;17.174;2022-11-09T02:39:35;99979.41;;;9.27;100.00
9077;BME280;4574;51.072;17.174;2022-11-09T02:42:08;99996.03;;;9.36;100.00
9077;BME280;4574;51.072;17.174;2022-11-09T02:44:47;99995.34;;;9.44;100.00
9077;BME280;4574;51.072;17.174;2022-11-09T02:47:16;99997.00;;;9.45;100.00
9077;BME280;4574;51.072;17.174;2022-11-09T02:49:45;99987.44;;;9.34;100.00
9077;BME280;4574;51.072;17.174;2022-11-09T02:52:15;99974.88;;;9.10;100.00
9077;BME280;4574;51.072;17.174;2022-11-09T02:54:43;99997.22;;;9.15;100.00
9077;BME280;4574;51.072;17.174;2022-11-09T02:57:12;99997.38;;;9.14;100.00
9077;BME280;4574;51.072;17.174;2022-11-09T02:59:40;99975.72;;;9.01;100.00
9077;BME280;4574;51.072;17.174;2022-11-09T03:02:09;99990.13;;;9.16;100.00
9077;BME280;4574;51.072;17.174;2022-11-09T03:04:37;99994.56;;;9.15;100.00
9077;BME280;4574;51.072;17.174;2022-11-09T03:07:06;99987.91;;;9.11;100.00
9077;BME280;4574;51.072;17.174;2022-11-09T03:09:37;100000.69;;;9.16;100.00
9077;BME280;4574;51.072;17.174;2022-11-09T03:12:05;100003.19;;;9.17;100.00
9077;BME280;4574;51.072;17.174;2022-11-09T03:14:47;99990.84;;;9.08;100.00
9077;BME280;4574;51.072;17.174;2022-11-09T03:17:16;99996.28;;;9.07;100.00
9077;BME280;4574;51.072;17.174;2022-11-09T03:19:45;99984.47;;;9.01;100.00
9077;BME280;4574;51.072;17.174;2022-11-09T03:22:13;99993.22;;;9.02;100.00
9077;BME280;4574;51.072;17.174;2022-11-09T03:24:43;100003.22;;;9.08;100.00
9077;BME280;4574;51.072;17.174;2022-11-09T03:27:12;100000.41;;;9.09;100.00
9077;BME280;4574;51.072;17.174;2022-11-09T03:29:40;100007.25;;;9.12;100.00
9077;BME280;4574;51.072;17.174;2022-11-09T03:32:09;100004.31;;;9.15;100.00
9077;BME280;4574;51.072;17.174;2022-11-09T03:34:37;100014.59;;;9.18;100.00
9077;BME280;4574;51.072;17.174;2022-11-09T03:37:06;100017.81;;;9.12;100.00
9077;BME280;4574;51.072;17.174;2022-11-09T03:39:35;100011.97;;;9.08;100.00
9077;BME280;4574;51.072;17.174;2022-11-09T03:42:05;100017.53;;;9.15;100.00
9077;BME280;4574;51.072;17.174;2022-11-09T03:44:33;100008.91;;;9.13;100.00
9077;BME280;4574;51.072;17.174;2022-11-09T03:47:01;100005.47;;;9.03;100.00
9077;BME280;4574;51.072;17.174;2022-11-09T03:49:30;100017.41;;;9.07;100.00
9077;BME280;4574;51.072;17.174;2022-11-09T03:51:58;100014.47;;;9.10;100.00
9077;BME280;4574;51.072;17.174;2022-11-09T03:54:27;100008.78;;;9.05;100.00
9077;BME280;4574;51.072;17.174;2022-11-09T03:56:55;100009.63;;;8.96;100.00
9077;BME280;4574;51.072;17.174;2022-11-09T03:59:25;100007.41;;;8.91;100.00
9077;BME280;4574;51.072;17.174;2022-11-09T04:01:54;100004.94;;;8.90;100.00
9077;BME280;4574;51.072;17.174;2022-11-09T04:04:22;100005.78;;;8.81;100.00
9077;BME280;4574;51.072;17.174;2022-11-09T04:06:51;99994.13;;;8.74;100.00
9077;BME280;4574;51.072;17.174;2022-11-09T04:09:19;99998.81;;;8.70;100.00
9077;BME280;4574;51.072;17.174;2022-11-09T04:11:48;99994.66;;;8.68;100.00
9077;BME280;4574;51.072;17.174;2022-11-09T04:14:16;99992.84;;;8.68;100.00
9077;BME280;4574;51.072;17.174;2022-11-09T04:16:46;99988.41;;;8.69;100.00
9077;BME280;4574;51.072;17.174;2022-11-09T04:19:14;99984.66;;;8.71;100.00
9077;BME280;4574;51.072;17.174;2022-11-09T04:21:43;99997.84;;;8.81;100.00
9077;BME280;4574;51.072;17.174;2022-11-09T04:24:11;99986.84;;;8.85;100.00
9077;BME280;4574;51.072;17.174;2022-11-09T04:26:40;99978.81;;;8.87;100.00
9077;BME280;4574;51.072;17.174;2022-11-09T04:29:09;99981.84;;;8.92;100.00
9077;BME280;4574;51.072;17.174;2022-11-09T04:31:37;99986.84;;;8.95;100.00
9077;BME280;4574;51.072;17.174;2022-11-09T04:34:07;99996.84;;;9.01;100.00
9077;BME280;4574;51.072;17.174;2022-11-09T04:36:36;99983.66;;;9.01;100.00
9077;BME280;4574;51.072;17.174;2022-11-09T04:39:04;99980.72;;;9.04;100.00
9077;BME280;4574;51.072;17.174;2022-11-09T04:41:33;99979.75;;;9.05;100.00
9077;BME280;4574;51.072;17.174;2022-11-09T04:44:01;99981.94;;;9.09;100.00
9077;BME280;4574;51.072;17.174;2022-11-09T04:46:30;99985.25;;;9.11;100.00
9077;BME280;4574;51.072;17.174;2022-11-09T04:48:58;99979.84;;;9.13;100.00
9077;BME280;4574;51.072;17.174;2022-11-09T04:51:28;99981.25;;;9.17;100.00
9077;BME280;4574;51.072;17.174;2022-11-09T04:53:56;99980.25;;;9.18;100.00
9077;BME280;4574;51.072;17.174;2022-11-09T04:56:25;99967.34;;;9.15;100.00
9077;BME280;4574;51.072;17.174;2022-11-09T04:58:53;99965.69;;;9.14;100.00
9077;BME280;4574;51.072;17.174;2022-11-09T05:01:22;99983.59;;;9.20;100.00
9077;BME280;4574;51.072;17.174;2022-11-09T05:03:50;99957.66;;;9.06;100.00
9077;BME280;4574;51.072;17.174;2022-11-09T05:06:19;99984.00;;;9.15;100.00
9077;BME280;4574;51.072;17.174;2022-11-09T05:09:04;99980.16;;;9.10;100.00
9077;BME280;4574;51.072;17.174;2022-11-09T05:11:33;99977.22;;;9.03;100.00
9077;BME280;4574;51.072;17.174;2022-11-09T05:14:02;99971.81;;;9.05;100.00
9077;BME280;4574;51.072;17.174;2022-11-09T05:16:31;99968.22;;;9.06;100.00
9077;BME280;4574;51.072;17.174;2022-11-09T05:18:59;99973.19;;;9.09;100.00
9077;BME280;4574;51.072;17.174;2022-11-09T05:21:28;99978.47;;;9.09;100.00
9077;BME280;4574;51.072;17.174;2022-11-09T05:23:56;99980.84;;;9.12;100.00
9077;BME280;4574;51.072;17.174;2022-11-09T05:26:29;99977.91;;;9.15;100.00
9077;BME280;4574;51.072;17.174;2022-11-09T05:28:58;99970.69;;;9.17;100.00
9077;BME280;4574;51.072;17.174;2022-11-09T05:31:27;99967.63;;;9.12;100.00
9077;BME280;4574;51.072;17.174;2022-11-09T05:33:57;99976.19;;;9.23;100.00
9077;BME280;4574;51.072;17.174;2022-11-09T05:36:26;99966.22;;;9.17;100.00
9077;BME280;4574;51.072;17.174;2022-11-09T05:38:55;99964.88;;;9.04;100.00
9077;BME280;4574;51.072;17.174;2022-11-09T05:41:24;99967.41;;;8.96;100.00
9077;BME280;4574;51.072;17.174;2022-11-09T05:43:54;99971.88;;;8.86;100.00
9077;BME280;4574;51.072;17.174;2022-11-09T05:46:22;99981.03;;;8.82;100.00
9077;BME280;4574;51.072;17.174;2022-11-09T05:48:52;99973.00;;;8.74;100.00
9077;BME280;4574;51.072;17.174;2022-11-09T05:51:20;99978.16;;;8.66;100.00
9077;BME280;4574;51.072;17.174;2022-11-09T05:53:49;99971.06;;;8.57;100.00
9077;BME280;4574;51.072;17.174;2022-11-09T05:56:17;99976.34;;;8.57;100.00
9077;BME280;4574;51.072;17.174;2022-11-09T05:58:45;99985.09;;;8.57;100.00
9077;BME280;4574;51.072;17.174;2022-11-09T06:01:17;99985.94;;;8.58;100.00
9077;BME280;4574;51.072;17.174;2022-11-09T06:03:45;99987.59;;;8.59;100.00
9077;BME280;4574;51.072;17.174;2022-11-09T06:06:15;63291.66;;;-139.42;100.00
9077;BME280;4574;51.072;17.174;2022-11-09T06:08:44;63291.66;;;-139.42;100.00
9077;BME280;4574;51.072;17.174;2022-11-09T06:11:13;63291.66;;;-139.42;100.00
9077;BME280;4574;51.072;17.174;2022-11-09T06:13:49;63291.66;;;-139.42;100.00
9077;BME280;4574;51.072;17.174;2022-11-09T06:16:19;63291.66;;;-139.42;100.00
9077;BME280;4574;51.072;17.174;2022-11-09T06:18:48;63291.66;;;-139.42;100.00
9077;BME280;4574;51.072;17.174;2022-11-09T06:21:16;63291.66;;;-139.42;100.00
9077;BME280;4574;51.072;17.174;2022-11-09T06:23:45;63291.66;;;-139.42;100.00
9077;BME280;4574;51.072;17.174;2022-11-09T06:26:14;63291.66;;;-139.42;100.00
9077;BME280;4574;51.072;17.174;2022-11-09T06:28:43;63291.66;;;-139.42;100.00
9077;BME280;4574;51.072;17.174;2022-11-09T06:31:13;63291.66;;;-139.42;100.00
9077;BME280;4574;51.072;17.174;2022-11-09T06:33:43;63291.66;;;-139.42;100.00
9077;BME280;4574;51.072;17.174;2022-11-09T06:36:11;63291.66;;;-139.42;100.00
9077;BME280;4574;51.072;17.174;2022-11-09T06:38:40;63291.66;;;-139.42;100.00
9077;BME280;4574;51.072;17.174;2022-11-09T06:41:09;63291.66;;;-139.42;100.00
9077;BME280;4574;51.072;17.174;2022-11-09T06:43:37;63291.66;;;-139.42;100.00
9077;BME280;4574;51.072;17.174;2022-11-09T06:46:06;63291.66;;;-139.42;100.00
9077;BME280;4574;51.072;17.174;2022-11-09T06:48:36;63291.66;;;-139.42;100.00
9077;BME280;4574;51.072;17.174;2022-11-09T06:51:06;63291.66;;;-139.42;100.00
9077;BME280;4574;51.072;17.174;2022-11-09T06:53:35;63291.66;;;-139.42;100.00
9077;BME280;4574;51.072;17.174;2022-11-09T06:56:05;63291.66;;;-139.42;100.00
9077;BME280;4574;51.072;17.174;2022-11-09T06:58:34;63291.66;;;-139.42;100.00
9077;BME280;4574;51.072;17.174;2022-11-09T07:01:07;63291.66;;;-139.42;100.00
9077;BME280;4574;51.072;17.174;2022-11-09T07:03:36;63291.66;;;-139.42;100.00
9077;BME280;4574;51.072;17.174;2022-11-09T07:06:07;63291.66;;;-139.42;100.00
9077;BME280;4574;51.072;17.174;2022-11-09T07:08:37;63291.66;;;-139.42;100.00
9077;BME280;4574;51.072;17.174;2022-11-09T07:11:06;63291.66;;;-139.42;100.00
9077;BME280;4574;51.072;17.174;2022-11-09T07:13:35;63291.66;;;-139.42;100.00
9077;BME280;4574;51.072;17.174;2022-11-09T07:16:04;63291.66;;;-139.42;100.00
9077;BME280;4574;51.072;17.174;2022-11-09T07:18:33;63291.66;;;-139.42;100.00
9077;BME280;4574;51.072;17.174;2022-11-09T07:21:04;63291.66;;;-139.42;100.00
9077;BME280;4574;51.072;17.174;2022-11-09T07:23:41;63291.66;;;-139.42;100.00
9077;BME280;4574;51.072;17.174;2022-11-09T07:26:10;63291.66;;;-139.42;100.00
9077;BME280;4574;51.072;17.174;2022-11-09T07:28:38;63291.66;;;-139.42;100.00
9077;BME280;4574;51.072;17.174;2022-11-09T07:31:08;63291.66;;;-139.42;100.00
9077;BME280;4574;51.072;17.174;2022-11-09T07:33:36;63291.66;;;-139.42;100.00
9077;BME280;4574;51.072;17.174;2022-11-09T07:36:05;63291.66;;;-139.42;100.00
9077;BME280;4574;51.072;17.174;2022-11-09T07:38:34;63291.66;;;-139.42;100.00
9077;BME280;4574;51.072;17.174;2022-11-09T07:41:04;63291.66;;;-139.42;100.00
9077;BME280;4574;51.072;17.174;2022-11-09T07:43:32;63291.66;;;-139.42;100.00
9077;BME280;4574;51.072;17.174;2022-11-09T07:46:02;63291.66;;;-139.42;100.00
9077;BME280;4574;51.072;17.174;2022-11-09T07:48:31;63291.66;;;-139.42;100.00
9077;BME280;4574;51.072;17.174;2022-11-09T07:51:03;63291.66;;;-139.42;100.00
9077;BME280;4574;51.072;17.174;2022-11-09T07:53:33;63291.66;;;-139.42;100.00
9077;BME280;4574;51.072;17.174;2022-11-09T07:56:04;63291.66;;;-139.42;100.00
9077;BME280;4574;51.072;17.174;2022-11-09T07:58:32;63291.66;;;-139.42;100.00
9077;BME280;4574;51.072;17.174;2022-11-09T08:01:06;63291.66;;;-139.42;100.00
9077;BME280;4574;51.072;17.174;2022-11-09T08:03:35;63291.66;;;-139.42;100.00
9077;BME280;4574;51.072;17.174;2022-11-09T08:06:04;63291.66;;;-139.42;100.00
9077;BME280;4574;51.072;17.174;2022-11-09T08:08:32;63291.66;;;-139.42;100.00
9077;BME280;4574;51.072;17.174;2022-11-09T08:11:01;63291.66;;;-139.42;100.00
9077;BME280;4574;51.072;17.174;2022-11-09T08:13:31;63291.66;;;-139.42;100.00
9077;BME280;4574;51.072;17.174;2022-11-09T08:16:00;63291.66;;;-139.42;100.00
9077;BME280;4574;51.072;17.174;2022-11-09T08:18:29;63291.66;;;-139.42;100.00
9077;BME280;4574;51.072;17.174;2022-11-09T08:21:00;63291.66;;;-139.42;100.00
9077;BME280;4574;51.072;17.174;2022-11-09T08:23:30;63291.66;;;-139.42;100.00
9077;BME280;4574;51.072;17.174;2022-11-09T08:26:02;63291.66;;;-139.42;100.00
9077;BME280;4574;51.072;17.174;2022-11-09T08:28:32;63291.66;;;-139.42;100.00
9077;BME280;4574;51.072;17.174;2022-11-09T08:31:03;63291.66;;;-139.42;100.00
9077;BME280;4574;51.072;17.174;2022-11-09T08:33:34;63291.66;;;-139.42;100.00
9077;BME280;4574;51.072;17.174;2022-11-09T08:36:08;63291.66;;;-139.42;100.00
9077;BME280;4574;51.072;17.174;2022-11-09T08:38:36;63291.66;;;-139.42;100.00
9077;BME280;4574;51.072;17.174;2022-11-09T08:41:05;63291.66;;;-139.42;100.00
9077;BME280;4574;51.072;17.174;2022-11-09T08:43:40;63291.66;;;-139.42;100.00
9077;BME280;4574;51.072;17.174;2022-11-09T08:46:09;63291.66;;;-139.42;100.00
9077;BME280;4574;51.072;17.174;2022-11-09T08:48:37;63291.66;;;-139.42;100.00
9077;BME280;4574;51.072;17.174;2022-11-09T08:51:06;63291.66;;;-139.42;100.00
9077;BME280;4574;51.072;17.174;2022-11-09T08:53:34;63291.66;;;-139.42;100.00
9077;BME280;4574;51.072;17.174;2022-11-09T08:56:04;63291.66;;;-139.42;100.00
9077;BME280;4574;51.072;17.174;2022-11-09T08:58:33;63291.66;;;-139.42;100.00
9077;BME280;4574;51.072;17.174;2022-11-09T09:01:07;63291.66;;;-139.42;100.00
9077;BME280;4574;51.072;17.174;2022-11-09T09:03:42;63291.66;;;-139.42;100.00
9077;BME280;4574;51.072;17.174;2022-11-09T09:06:10;63291.66;;;-139.42;100.00
9077;BME280;4574;51.072;17.174;2022-11-09T09:08:39;63291.66;;;-139.42;100.00
9077;BME280;4574;51.072;17.174;2022-11-09T09:11:07;63291.66;;;-139.42;100.00
9077;BME280;4574;51.072;17.174;2022-11-09T09:13:35;63291.66;;;-139.42;100.00
9077;BME280;4574;51.072;17.174;2022-11-09T09:16:12;63291.66;;;-139.42;100.00
9077;BME280;4574;51.072;17.174;2022-11-09T09:18:41;63291.66;;;-139.42;100.00
9077;BME280;4574;51.072;17.174;2022-11-09T09:21:10;63291.66;;;-139.42;100.00
9077;BME280;4574;51.072;17.174;2022-11-09T09:23:39;63291.66;;;-139.42;100.00
9077;BME280;4574;51.072;17.174;2022-11-09T09:26:07;63291.66;;;-139.42;100.00
9077;BME280;4574;51.072;17.174;2022-11-09T09:28:36;63291.66;;;-139.42;100.00
9077;BME280;4574;51.072;17.174;2022-11-09T09:31:05;63291.66;;;-139.42;100.00
9077;BME280;4574;51.072;17.174;2022-11-09T09:33:35;63291.66;;;-139.42;100.00
9077;BME280;4574;51.072;17.174;2022-11-09T09:36:04;63291.66;;;-139.42;100.00
9077;BME280;4574;51.072;17.174;2022-11-09T09:38:32;63291.66;;;-139.42;100.00
9077;BME280;4574;51.072;17.174;2022-11-09T09:41:02;63291.66;;;-139.42;100.00
9077;BME280;4574;51.072;17.174;2022-11-09T09:43:36;63291.66;;;-139.42;100.00
9077;BME280;4574;51.072;17.174;2022-11-09T09:46:14;63291.66;;;-139.42;100.00
9077;BME280;4574;51.072;17.174;2022-11-09T09:48:50;63291.66;;;-139.42;100.00
9077;BME280;4574;51.072;17.174;2022-11-09T09:51:24;63291.66;;;-139.42;100.00
9077;BME280;4574;51.072;17.174;2022-11-09T09:54:02;63291.66;;;-139.42;100.00
9077;BME280;4574;51.072;17.174;2022-11-09T09:56:33;63291.66;;;-139.42;100.00
9077;BME280;4574;51.072;17.174;2022-11-09T09:59:09;63291.66;;;-139.42;100.00
9077;BME280;4574;51.072;17.174;2022-11-09T10:01:40;63291.66;;;-139.42;100.00
9077;BME280;4574;51.072;17.174;2022-11-09T10:04:16;63291.66;;;-139.42;100.00
9077;BME280;4574;51.072;17.174;2022-11-09T10:06:54;63291.66;;;-139.42;100.00
9077;BME280;4574;51.072;17.174;2022-11-09T10:09:35;63291.66;;;-139.42;100.00
9077;BME280;4574;51.072;17.174;2022-11-09T10:12:15;63291.66;;;-139.42;100.00
9077;BME280;4574;51.072;17.174;2022-11-09T10:14:59;63291.66;;;-139.42;100.00
9077;BME280;4574;51.072;17.174;2022-11-09T10:17:37;63291.66;;;-139.42;100.00
9077;BME280;4574;51.072;17.174;2022-11-09T10:20:21;63291.66;;;-139.42;100.00
9077;BME280;4574;51.072;17.174;2022-11-09T10:23:03;63291.66;;;-139.42;100.00
9077;BME280;4574;51.072;17.174;2022-11-09T10:25:37;63291.66;;;-139.42;100.00
9077;BME280;4574;51.072;17.174;2022-11-09T10:28:27;63291.66;;;-139.42;100.00
9077;BME280;4574;51.072;17.174;2022-11-09T10:31:18;63291.66;;;-139.42;100.00
9077;BME280;4574;51.072;17.174;2022-11-09T10:33:50;63291.66;;;-139.42;100.00
9077;BME280;4574;51.072;17.174;2022-11-09T10:36:26;63291.66;;;-139.42;100.00
9077;BME280;4574;51.072;17.174;2022-11-09T10:38:59;63291.66;;;-139.42;100.00
9077;BME280;4574;51.072;17.174;2022-11-09T10:41:31;63291.66;;;-139.42;100.00
9077;BME280;4574;51.072;17.174;2022-11-09T10:44:01;63291.66;;;-139.42;100.00
9077;BME280;4574;51.072;17.174;2022-11-09T10:46:29;63291.66;;;-139.42;100.00
9077;BME280;4574;51.072;17.174;2022-11-09T10:49:18;63291.66;;;-139.42;100.00
9077;BME280;4574;51.072;17.174;2022-11-09T10:51:48;63291.66;;;-139.42;100.00
9077;BME280;4574;51.072;17.174;2022-11-09T10:54:19;63291.66;;;-139.42;100.00
9077;BME280;4574;51.072;17.174;2022-11-09T10:56:50;63291.66;;;-139.42;100.00
9077;BME280;4574;51.072;17.174;2022-11-09T10:59:38;63291.66;;;-139.42;100.00
9077;BME280;4574;51.072;17.174;2022-11-09T11:02:41;63291.66;;;-139.42;100.00
9077;BME280;4574;51.072;17.174;2022-11-09T11:05:26;63291.66;;;-139.42;100.00
9077;BME280;4574;51.072;17.174;2022-11-09T11:07:56;63291.66;;;-139.42;100.00
9077;BME280;4574;51.072;17.174;2022-11-09T11:10:24;63291.66;;;-139.42;100.00
9077;BME280;4574;51.072;17.174;2022-11-09T11:13:23;63291.66;;;-139.42;100.00
9077;BME280;4574;51.072;17.174;2022-11-09T11:15:51;63291.66;;;-139.42;100.00
9077;BME280;4574;51.072;17.174;2022-11-09T11:18:22;63291.66;;;-139.42;100.00
9077;BME280;4574;51.072;17.174;2022-11-09T11:21:08;63291.66;;;-139.42;100.00
9077;BME280;4574;51.072;17.174;2022-11-09T11:24:04;63291.66;;;-139.42;100.00
9077;BME280;4574;51.072;17.174;2022-11-09T11:26:44;63291.66;;;-139.42;100.00
9077;BME280;4574;51.072;17.174;2022-11-09T11:29:40;63291.66;;;-139.42;100.00
9077;BME280;4574;51.072;17.174;2022-11-09T11:32:14;63291.66;;;-139.42;100.00
9077;BME280;4574;51.072;17.174;2022-11-09T11:34:43;63291.66;;;-139.42;100.00
9077;BME280;4574;51.072;17.174;2022-11-09T11:37:36;63291.66;;;-139.42;100.00
9077;BME280;4574;51.072;17.174;2022-11-09T11:40:16;63291.66;;;-139.42;100.00
9077;BME280;4574;51.072;17.174;2022-11-09T11:43:14;63291.66;;;-139.42;100.00
9077;BME280;4574;51.072;17.174;2022-11-09T11:45:54;63291.66;;;-139.42;100.00
9077;BME280;4574;51.072;17.174;2022-11-09T11:48:34;63291.66;;;-139.42;100.00
9077;BME280;4574;51.072;17.174;2022-11-09T11:51:10;63291.66;;;-139.42;100.00
9077;BME280;4574;51.072;17.174;2022-11-09T11:53:49;63291.66;;;-139.42;100.00
9077;BME280;4574;51.072;17.174;2022-11-09T11:56:25;63291.66;;;-139.42;100.00
9077;BME280;4574;51.072;17.174;2022-11-09T11:59:17;63291.66;;;-139.42;100.00
9077;BME280;4574;51.072;17.174;2022-11-09T12:02:02;63291.66;;;-139.42;100.00
9077;BME280;4574;51.072;17.174;2022-11-09T12:10:53;63291.66;;;-139.42;100.00
9077;BME280;4574;51.072;17.174;2022-11-09T12:13:48;63291.66;;;-139.42;100.00
9077;BME280;4574;51.072;17.174;2022-11-09T12:16:24;63291.66;;;-139.42;100.00
9077;BME280;4574;51.072;17.174;2022-11-09T12:19:08;63291.66;;;-139.42;100.00
9077;BME280;4574;51.072;17.174;2022-11-09T12:21:50;63291.66;;;-139.42;100.00
9077;BME280;4574;51.072;17.174;2022-11-09T12:24:26;63291.66;;;-139.42;100.00
9077;BME280;4574;51.072;17.174;2022-11-09T12:27:07;63291.66;;;-139.42;100.00
9077;BME280;4574;51.072;17.174;2022-11-09T12:30:05;63291.66;;;-139.42;100.00
9077;BME280;4574;51.072;17.174;2022-11-09T12:32:43;63291.66;;;-139.42;100.00
9077;BME280;4574;51.072;17.174;2022-11-09T12:35:28;63291.66;;;-139.42;100.00
9077;BME280;4574;51.072;17.174;2022-11-09T12:38:02;63291.66;;;-139.42;100.00
9077;BME280;4574;51.072;17.174;2022-11-09T12:40:36;63291.66;;;-139.42;100.00
9077;BME280;4574;51.072;17.174;2022-11-09T12:43:13;63291.66;;;-139.42;100.00
9077;BME280;4574;51.072;17.174;2022-11-09T12:45:47;63291.66;;;-139.42;100.00
9077;BME280;4574;51.072;17.174;2022-11-09T12:48:21;63291.66;;;-139.42;100.00
9077;BME280;4574;51.072;17.174;2022-11-09T12:50:51;63291.66;;;-139.42;100.00
9077;BME280;4574;51.072;17.174;2022-11-09T12:53:23;63291.66;;;-139.42;100.00
9077;BME280;4574;51.072;17.174;2022-11-09T12:55:56;63291.66;;;-139.42;100.00
9077;BME280;4574;51.072;17.174;2022-11-09T12:58:29;63291.66;;;-139.42;100.00
9077;BME280;4574;51.072;17.174;2022-11-09T13:01:00;63291.66;;;-139.42;100.00
9077;BME280;4574;51.072;17.174;2022-11-09T13:03:31;63291.66;;;-139.42;100.00
9077;BME280;4574;51.072;17.174;2022-11-09T13:06:13;63291.66;;;-139.42;100.00
9077;BME280;4574;51.072;17.174;2022-11-09T13:08:54;63291.66;;;-139.42;100.00
9077;BME280;4574;51.072;17.174;2022-11-09T13:11:35;63291.66;;;-139.42;100.00
9077;BME280;4574;51.072;17.174;2022-11-09T13:14:30;63291.66;;;-139.42;100.00
9077;BME280;4574;51.072;17.174;2022-11-09T13:20:38;63291.66;;;-139.42;100.00
9077;BME280;4574;51.072;17.174;2022-11-09T13:23:28;63291.66;;;-139.42;100.00
9077;BME280;4574;51.072;17.174;2022-11-09T13:26:22;63291.66;;;-139.42;100.00